sensor_id;sensor_type;location;lat;lon;timestamp;pressure;altitude;pressure_sealevel;temperature;humidity
82807;BME280;72563;44.816;20.484;2023-10-31T00:00:37;99884.81;;;20.53;35.21
82807;BME280;72563;44.816;20.484;2023-10-31T00:03:02;99884.44;;;20.65;34.79
82807;BME280;72563;44.816;20.484;2023-10-31T00:05:28;99895.59;;;20.51;37.45
82807;BME280;72563;44.816;20.484;2023-10-31T00:07:53;99878.31;;;20.18;37.09
82807;BME280;72563;44.816;20.484;2023-10-31T00:10:19;99892.84;;;20.76;36.11
82807;BME280;72563;44.816;20.484;2023-10-31T00:12:44;99888.47;;;20.89;34.82
82807;BME280;72563;44.816;20.484;2023-10-31T00:15:10;99888.38;;;20.40;35.95
82807;BME280;72563;44.816;20.484;2023-10-31T00:17:35;99845.25;;;20.41;36.60
82807;BME280;72563;44.816;20.484;2023-10-31T00:20:01;99856.13;;;21.13;36.22
82807;BME280;72563;44.816;20.484;2023-10-31T00:22:26;99886.50;;;20.97;36.21
82807;BME280;72563;44.816;20.484;2023-10-31T00:24:52;99882.06;;;20.82;37.04
82807;BME280;72563;44.816;20.484;2023-10-31T00:27:17;99876.63;;;20.03;38.18
82807;BME280;72563;44.816;20.484;2023-10-31T00:29:43;99876.72;;;20.20;37.97
82807;BME280;72563;44.816;20.484;2023-10-31T00:32:08;99882.75;;;20.36;37.50
82807;BME280;72563;44.816;20.484;2023-10-31T00:34:33;99867.63;;;20.48;35.91
82807;BME280;72563;44.816;20.484;2023-10-31T00:36:59;99875.19;;;20.40;36.14
82807;BME280;72563;44.816;20.484;2023-10-31T00:39:24;99854.47;;;20.87;36.15
82807;BME280;72563;44.816;20.484;2023-10-31T00:41:50;99876.34;;;20.25;36.58
82807;BME280;72563;44.816;20.484;2023-10-31T00:44:15;99860.00;;;20.34;37.33
82807;BME280;72563;44.816;20.484;2023-10-31T00:46:40;99851.25;;;20.39;36.78
82807;BME280;72563;44.816;20.484;2023-10-31T00:49:06;99860.56;;;19.75;37.54
82807;BME280;72563;44.816;20.484;2023-10-31T00:51:32;99856.56;;;19.76;38.44
82807;BME280;72563;44.816;20.484;2023-10-31T00:53:57;99858.78;;;20.21;37.56
82807;BME280;72563;44.816;20.484;2023-10-31T00:56:23;99860.41;;;20.33;36.58
82807;BME280;72563;44.816;20.484;2023-10-31T00:58:48;99862.44;;;20.53;36.62
82807;BME280;72563;44.816;20.484;2023-10-31T01:01:14;99846.72;;;20.14;36.87
82807;BME280;72563;44.816;20.484;2023-10-31T01:03:40;99852.25;;;20.00;37.04
82807;BME280;72563;44.816;20.484;2023-10-31T01:06:06;99831.66;;;20.36;35.98
82807;BME280;72563;44.816;20.484;2023-10-31T01:08:31;99847.53;;;20.11;37.62
82807;BME280;72563;44.816;20.484;2023-10-31T01:10:57;99829.28;;;20.41;38.43
82807;BME280;72563;44.816;20.484;2023-10-31T01:13:22;99824.53;;;21.02;37.67
82807;BME280;72563;44.816;20.484;2023-10-31T01:15:48;99831.25;;;20.37;37.71
82807;BME280;72563;44.816;20.484;2023-10-31T01:18:13;99824.09;;;20.89;36.82
82807;BME280;72563;44.816;20.484;2023-10-31T01:20:39;99801.72;;;20.61;36.10
82807;BME280;72563;44.816;20.484;2023-10-31T01:23:04;99832.25;;;19.83;37.92
82807;BME280;72563;44.816;20.484;2023-10-31T01:25:30;99819.66;;;20.28;38.06
82807;BME280;72563;44.816;20.484;2023-10-31T01:27:55;99818.91;;;20.56;37.76
82807;BME280;72563;44.816;20.484;2023-10-31T01:30:21;99818.91;;;20.59;38.14
82807;BME280;72563;44.816;20.484;2023-10-31T01:32:46;99832.03;;;20.31;38.07
82807;BME280;72563;44.816;20.484;2023-10-31T01:35:12;99826.75;;;20.12;37.28
82807;BME280;72563;44.816;20.484;2023-10-31T01:37:37;99826.91;;;20.64;38.12
82807;BME280;72563;44.816;20.484;2023-10-31T01:40:03;99819.28;;;20.33;38.68
82807;BME280;72563;44.816;20.484;2023-10-31T01:42:29;99818.94;;;20.84;37.66
82807;BME280;72563;44.816;20.484;2023-10-31T01:44:55;99816.53;;;20.72;38.06
82807;BME280;72563;44.816;20.484;2023-10-31T01:47:20;99807.56;;;19.93;37.17
82807;BME280;72563;44.816;20.484;2023-10-31T01:49:47;99802.13;;;20.42;36.97
82807;BME280;72563;44.816;20.484;2023-10-31T01:52:13;99809.75;;;20.91;36.30
82807;BME280;72563;44.816;20.484;2023-10-31T01:54:38;99780.13;;;20.33;36.30
82807;BME280;72563;44.816;20.484;2023-10-31T01:57:04;99782.94;;;20.54;38.07
82807;BME280;72563;44.816;20.484;2023-10-31T01:59:30;99788.13;;;20.35;36.17
82807;BME280;72563;44.816;20.484;2023-10-31T02:01:57;99764.09;;;20.16;36.18
82807;BME280;72563;44.816;20.484;2023-10-31T02:04:24;99774.16;;;20.28;38.03
82807;BME280;72563;44.816;20.484;2023-10-31T02:06:49;99769.78;;;20.65;37.42
82807;BME280;72563;44.816;20.484;2023-10-31T02:09:15;99778.16;;;20.65;38.07
82807;BME280;72563;44.816;20.484;2023-10-31T02:11:41;99775.59;;;19.90;36.96
82807;BME280;72563;44.816;20.484;2023-10-31T02:14:06;99763.75;;;20.39;36.72
82807;BME280;72563;44.816;20.484;2023-10-31T02:16:31;99767.66;;;20.06;36.56
82807;BME280;72563;44.816;20.484;2023-10-31T02:18:57;99746.91;;;20.00;36.98
82807;BME280;72563;44.816;20.484;2023-10-31T02:21:24;99731.31;;;19.96;38.60
82807;BME280;72563;44.816;20.484;2023-10-31T02:24:02;99730.19;;;20.18;36.69
82807;BME280;72563;44.816;20.484;2023-10-31T02:26:34;99733.00;;;20.21;37.13
82807;BME280;72563;44.816;20.484;2023-10-31T02:29:01;99730.22;;;20.32;35.58
82807;BME280;72563;44.816;20.484;2023-10-31T02:31:27;99722.25;;;20.48;36.14
82807;BME280;72563;44.816;20.484;2023-10-31T02:33:53;99723.41;;;20.33;36.20
82807;BME280;72563;44.816;20.484;2023-10-31T02:36:18;99715.03;;;20.43;35.66
82807;BME280;72563;44.816;20.484;2023-10-31T02:38:44;99703.06;;;20.36;36.67
82807;BME280;72563;44.816;20.484;2023-10-31T02:41:10;99709.06;;;20.62;36.01
82807;BME280;72563;44.816;20.484;2023-10-31T02:43:37;99726.16;;;20.12;37.62
82807;BME280;72563;44.816;20.484;2023-10-31T02:46:03;99717.38;;;20.10;37.90
82807;BME280;72563;44.816;20.484;2023-10-31T02:48:28;99702.25;;;20.21;36.71
82807;BME280;72563;44.816;20.484;2023-10-31T02:50:54;99697.06;;;20.44;36.96
82807;BME280;72563;44.816;20.484;2023-10-31T02:53:20;99677.41;;;19.70;37.82
82807;BME280;72563;44.816;20.484;2023-10-31T02:55:45;99684.25;;;20.05;37.13
82807;BME280;72563;44.816;20.484;2023-10-31T02:58:11;99692.19;;;19.78;36.62
82807;BME280;72563;44.816;20.484;2023-10-31T03:00:37;99675.88;;;20.01;36.72
82807;BME280;72563;44.816;20.484;2023-10-31T03:03:03;99688.63;;;19.95;36.63
82807;BME280;72563;44.816;20.484;2023-10-31T03:05:28;99653.88;;;19.82;36.83
82807;BME280;72563;44.816;20.484;2023-10-31T03:07:54;99677.06;;;20.11;36.81
82807;BME280;72563;44.816;20.484;2023-10-31T03:10:20;99679.44;;;19.77;37.27
82807;BME280;72563;44.816;20.484;2023-10-31T03:12:45;99693.00;;;19.93;38.24
82807;BME280;72563;44.816;20.484;2023-10-31T03:15:11;99681.06;;;19.99;37.55
82807;BME280;72563;44.816;20.484;2023-10-31T03:17:36;99690.22;;;20.10;36.44
82807;BME280;72563;44.816;20.484;2023-10-31T03:20:02;99696.59;;;20.00;35.66
82807;BME280;72563;44.816;20.484;2023-10-31T03:22:27;99697.78;;;19.81;36.00
82807;BME280;72563;44.816;20.484;2023-10-31T03:24:53;99693.81;;;19.93;35.68
82807;BME280;72563;44.816;20.484;2023-10-31T03:27:18;99709.75;;;19.78;35.97
82807;BME280;72563;44.816;20.484;2023-10-31T03:29:44;99706.28;;;20.38;36.75
82807;BME280;72563;44.816;20.484;2023-10-31T03:32:09;99718.53;;;19.77;35.82
82807;BME280;72563;44.816;20.484;2023-10-31T03:34:35;99708.91;;;19.60;36.14
82807;BME280;72563;44.816;20.484;2023-10-31T03:37:00;99725.34;;;19.97;35.89
82807;BME280;72563;44.816;20.484;2023-10-31T03:39:26;99719.66;;;19.65;36.75
82807;BME280;72563;44.816;20.484;2023-10-31T03:41:52;99727.28;;;19.72;36.29
82807;BME280;72563;44.816;20.484;2023-10-31T03:44:18;99700.59;;;19.92;36.05
82807;BME280;72563;44.816;20.484;2023-10-31T03:46:43;99729.38;;;20.17;35.74
82807;BME280;72563;44.816;20.484;2023-10-31T03:49:09;99729.84;;;20.44;36.26
82807;BME280;72563;44.816;20.484;2023-10-31T03:51:34;99733.44;;;20.48;34.81
82807;BME280;72563;44.816;20.484;2023-10-31T03:54:00;99737.81;;;20.56;35.28
82807;BME280;72563;44.816;20.484;2023-10-31T03:56:25;99712.13;;;19.76;35.54
82807;BME280;72563;44.816;20.484;2023-10-31T03:58:51;99732.97;;;20.18;35.43
82807;BME280;72563;44.816;20.484;2023-10-31T04:01:16;99736.59;;;20.32;37.05
82807;BME280;72563;44.816;20.484;2023-10-31T04:03:42;99732.59;;;20.19;36.26
82807;BME280;72563;44.816;20.484;2023-10-31T04:06:08;99742.56;;;20.20;35.70
82807;BME280;72563;44.816;20.484;2023-10-31T04:08:33;99714.63;;;20.31;36.79
82807;BME280;72563;44.816;20.484;2023-10-31T04:10:58;99747.81;;;20.64;36.73
82807;BME280;72563;44.816;20.484;2023-10-31T04:13:24;99733.78;;;20.71;34.45
82807;BME280;72563;44.816;20.484;2023-10-31T04:15:49;99749.78;;;20.32;34.21
82807;BME280;72563;44.816;20.484;2023-10-31T04:18:15;99748.59;;;20.57;35.66
82807;BME280;72563;44.816;20.484;2023-10-31T04:20:40;99751.72;;;20.14;34.71
82807;BME280;72563;44.816;20.484;2023-10-31T04:23:06;99762.97;;;20.42;36.29
82807;BME280;72563;44.816;20.484;2023-10-31T04:25:32;99768.53;;;20.98;34.56
82807;BME280;72563;44.816;20.484;2023-10-31T04:27:57;99757.78;;;20.47;34.53
82807;BME280;72563;44.816;20.484;2023-10-31T04:30:23;99782.84;;;20.05;35.54
82807;BME280;72563;44.816;20.484;2023-10-31T04:32:48;99766.59;;;20.46;35.45
82807;BME280;72563;44.816;20.484;2023-10-31T04:35:14;99766.41;;;19.90;37.24
82807;BME280;72563;44.816;20.484;2023-10-31T04:37:39;99759.38;;;20.45;35.57
82807;BME280;72563;44.816;20.484;2023-10-31T04:40:05;99737.72;;;20.14;36.58
82807;BME280;72563;44.816;20.484;2023-10-31T04:42:32;99777.75;;;20.46;35.21
82807;BME280;72563;44.816;20.484;2023-10-31T04:44:58;99779.34;;;20.75;35.45
82807;BME280;72563;44.816;20.484;2023-10-31T04:47:24;99772.16;;;20.39;35.07
82807;BME280;72563;44.816;20.484;2023-10-31T04:49:50;99776.16;;;20.87;36.31
82807;BME280;72563;44.816;20.484;2023-10-31T04:52:16;99784.97;;;20.68;34.68
82807;BME280;72563;44.816;20.484;2023-10-31T04:54:42;99782.97;;;20.72;34.61
82807;BME280;72563;44.816;20.484;2023-10-31T04:57:07;99781.34;;;20.39;35.74
82807;BME280;72563;44.816;20.484;2023-10-31T04:59:33;99772.97;;;20.64;35.47
82807;BME280;72563;44.816;20.484;2023-10-31T05:01:58;99763.34;;;21.18;34.60
82807;BME280;72563;44.816;20.484;2023-10-31T05:04:24;99767.28;;;21.34;35.08
82807;BME280;72563;44.816;20.484;2023-10-31T05:06:49;99784.09;;;21.41;34.98
82807;BME280;72563;44.816;20.484;2023-10-31T05:09:15;99774.16;;;20.63;34.80
82807;BME280;72563;44.816;20.484;2023-10-31T05:11:40;99772.97;;;20.67;35.91
82807;BME280;72563;44.816;20.484;2023-10-31T05:14:08;99792.97;;;20.77;36.40
82807;BME280;72563;44.816;20.484;2023-10-31T05:16:44;99806.13;;;20.65;36.01
82807;BME280;72563;44.816;20.484;2023-10-31T05:19:10;99787.38;;;21.05;35.85
82807;BME280;72563;44.816;20.484;2023-10-31T05:21:35;99790.91;;;20.35;37.57
82807;BME280;72563;44.816;20.484;2023-10-31T05:24:01;99763.34;;;20.40;37.29
82807;BME280;72563;44.816;20.484;2023-10-31T05:26:27;99779.75;;;20.52;37.48
82807;BME280;72563;44.816;20.484;2023-10-31T05:28:54;99761.38;;;20.87;35.83
82807;BME280;72563;44.816;20.484;2023-10-31T05:31:19;99760.97;;;20.85;35.90
82807;BME280;72563;44.816;20.484;2023-10-31T05:33:45;99774.16;;;20.42;37.02
82807;BME280;72563;44.816;20.484;2023-10-31T05:36:21;99760.97;;;20.49;36.90
82807;BME280;72563;44.816;20.484;2023-10-31T05:38:46;99755.38;;;20.21;37.89
82807;BME280;72563;44.816;20.484;2023-10-31T05:41:13;99757.75;;;20.79;37.27
82807;BME280;72563;44.816;20.484;2023-10-31T05:43:38;99774.13;;;20.38;36.89
82807;BME280;72563;44.816;20.484;2023-10-31T05:46:03;99815.31;;;20.66;37.73
82807;BME280;72563;44.816;20.484;2023-10-31T05:48:30;99816.53;;;20.86;36.75
82807;BME280;72563;44.816;20.484;2023-10-31T05:50:56;99809.72;;;20.52;37.27
82807;BME280;72563;44.816;20.484;2023-10-31T05:53:21;99823.72;;;20.73;37.84
82807;BME280;72563;44.816;20.484;2023-10-31T05:55:47;99823.75;;;21.15;36.69
82807;BME280;72563;44.816;20.484;2023-10-31T05:58:12;99819.69;;;20.49;38.17
82807;BME280;72563;44.816;20.484;2023-10-31T06:00:38;99788.53;;;20.90;37.20
82807;BME280;72563;44.816;20.484;2023-10-31T06:03:03;99804.94;;;20.77;37.48
82807;BME280;72563;44.816;20.484;2023-10-31T06:05:29;99789.16;;;19.88;38.63
82807;BME280;72563;44.816;20.484;2023-10-31T06:07:54;99801.72;;;20.47;38.44
82807;BME280;72563;44.816;20.484;2023-10-31T06:10:20;99800.09;;;20.25;38.15
82807;BME280;72563;44.816;20.484;2023-10-31T06:12:46;99806.47;;;20.29;38.71
82807;BME280;72563;44.816;20.484;2023-10-31T06:15:12;99802.41;;;20.16;37.92
82807;BME280;72563;44.816;20.484;2023-10-31T06:17:37;99807.31;;;20.43;38.90
82807;BME280;72563;44.816;20.484;2023-10-31T06:20:03;99801.75;;;20.79;37.77
82807;BME280;72563;44.816;20.484;2023-10-31T06:22:29;99812.50;;;20.38;37.62
82807;BME280;72563;44.816;20.484;2023-10-31T06:24:54;99820.50;;;20.50;38.34
82807;BME280;72563;44.816;20.484;2023-10-31T06:27:20;99821.31;;;20.54;38.43
82807;BME280;72563;44.816;20.484;2023-10-31T06:29:45;99806.13;;;20.94;36.91
82807;BME280;72563;44.816;20.484;2023-10-31T06:32:10;99789.75;;;20.92;37.38
82807;BME280;72563;44.816;20.484;2023-10-31T06:34:36;99773.78;;;20.64;37.96
82807;BME280;72563;44.816;20.484;2023-10-31T06:37:02;99763.78;;;20.49;38.30
82807;BME280;72563;44.816;20.484;2023-10-31T06:39:28;99757.38;;;20.38;36.75
82807;BME280;72563;44.816;20.484;2023-10-31T06:41:56;99743.41;;;20.42;37.81
82807;BME280;72563;44.816;20.484;2023-10-31T06:44:22;99738.59;;;20.67;38.30
82807;BME280;72563;44.816;20.484;2023-10-31T06:46:47;99751.38;;;21.07;35.77
82807;BME280;72563;44.816;20.484;2023-10-31T06:49:12;99773.78;;;21.07;36.21
82807;BME280;72563;44.816;20.484;2023-10-31T06:51:38;99768.97;;;20.83;37.29
82807;BME280;72563;44.816;20.484;2023-10-31T06:54:04;99758.56;;;20.58;36.99
82807;BME280;72563;44.816;20.484;2023-10-31T06:56:29;99771.78;;;20.72;36.93
82807;BME280;72563;44.816;20.484;2023-10-31T06:58:54;99758.97;;;20.71;37.76
82807;BME280;72563;44.816;20.484;2023-10-31T07:01:20;99749.38;;;20.40;38.27
82807;BME280;72563;44.816;20.484;2023-10-31T07:03:46;99760.19;;;20.70;37.70
82807;BME280;72563;44.816;20.484;2023-10-31T07:06:12;99751.78;;;20.63;37.99
82807;BME280;72563;44.816;20.484;2023-10-31T07:08:37;99732.19;;;21.02;37.63
82807;BME280;72563;44.816;20.484;2023-10-31T07:11:03;99730.22;;;20.74;38.63
82807;BME280;72563;44.816;20.484;2023-10-31T07:13:30;99730.56;;;20.94;37.98
82807;BME280;72563;44.816;20.484;2023-10-31T07:15:55;99735.00;;;20.74;37.77
82807;BME280;72563;44.816;20.484;2023-10-31T07:18:21;99747.72;;;21.27;37.37
82807;BME280;72563;44.816;20.484;2023-10-31T07:20:46;99732.16;;;20.98;37.02
82807;BME280;72563;44.816;20.484;2023-10-31T07:23:12;99745.78;;;20.82;37.63
82807;BME280;72563;44.816;20.484;2023-10-31T07:25:37;99735.81;;;20.63;39.25
82807;BME280;72563;44.816;20.484;2023-10-31T07:28:03;99705.00;;;20.92;37.70
82807;BME280;72563;44.816;20.484;2023-10-31T07:30:28;99711.03;;;20.76;37.35
82807;BME280;72563;44.816;20.484;2023-10-31T07:32:55;99692.59;;;20.96;37.25
82807;BME280;72563;44.816;20.484;2023-10-31T07:35:20;99662.97;;;21.16;37.09
82807;BME280;72563;44.816;20.484;2023-10-31T07:37:46;99653.78;;;21.16;37.44
82807;BME280;72563;44.816;20.484;2023-10-31T07:40:12;99662.59;;;21.00;37.63
82807;BME280;72563;44.816;20.484;2023-10-31T07:42:37;99664.69;;;20.50;38.39
82807;BME280;72563;44.816;20.484;2023-10-31T07:45:03;99657.06;;;20.83;38.80
82807;BME280;72563;44.816;20.484;2023-10-31T07:47:28;99629.47;;;20.81;38.72
82807;BME280;72563;44.816;20.484;2023-10-31T07:49:54;99618.38;;;20.53;38.17
82807;BME280;72563;44.816;20.484;2023-10-31T07:52:20;99592.00;;;20.64;38.55
82807;BME280;72563;44.816;20.484;2023-10-31T07:54:45;99588.78;;;20.59;38.42
82807;BME280;72563;44.816;20.484;2023-10-31T07:57:11;99601.19;;;20.58;38.76
82807;BME280;72563;44.816;20.484;2023-10-31T07:59:36;99590.38;;;20.67;38.49
82807;BME280;72563;44.816;20.484;2023-10-31T08:02:02;99606.31;;;20.77;38.30
82807;BME280;72563;44.816;20.484;2023-10-31T08:04:28;99585.94;;;20.73;38.65
82807;BME280;72563;44.816;20.484;2023-10-31T08:06:55;99607.13;;;20.78;38.26
82807;BME280;72563;44.816;20.484;2023-10-31T08:09:20;99608.41;;;20.52;38.55
82807;BME280;72563;44.816;20.484;2023-10-31T08:11:46;99623.09;;;20.77;39.26
82807;BME280;72563;44.816;20.484;2023-10-31T08:14:11;99626.97;;;21.18;38.79
82807;BME280;72563;44.816;20.484;2023-10-31T08:16:37;99639.06;;;20.84;39.38
82807;BME280;72563;44.816;20.484;2023-10-31T08:19:03;99631.16;;;20.50;38.40
82807;BME280;72563;44.816;20.484;2023-10-31T08:21:28;99628.59;;;21.16;38.01
82807;BME280;72563;44.816;20.484;2023-10-31T08:23:59;99619.72;;;21.31;37.71
82807;BME280;72563;44.816;20.484;2023-10-31T08:26:25;99625.69;;;21.37;36.76
82807;BME280;72563;44.816;20.484;2023-10-31T08:28:51;99606.72;;;21.66;37.06
82807;BME280;72563;44.816;20.484;2023-10-31T08:31:17;99622.44;;;21.42;41.97
82807;BME280;72563;44.816;20.484;2023-10-31T08:33:42;99618.50;;;21.39;39.68
82807;BME280;72563;44.816;20.484;2023-10-31T08:36:08;99640.75;;;21.64;37.49
82807;BME280;72563;44.816;20.484;2023-10-31T08:38:34;99643.91;;;21.70;37.54
82807;BME280;72563;44.816;20.484;2023-10-31T08:40:59;99665.13;;;22.29;38.11
82807;BME280;72563;44.816;20.484;2023-10-31T08:43:25;99661.84;;;22.38;35.55
82807;BME280;72563;44.816;20.484;2023-10-31T08:45:51;99676.31;;;22.33;34.89
82807;BME280;72563;44.816;20.484;2023-10-31T08:48:16;99678.72;;;22.31;34.80
82807;BME280;72563;44.816;20.484;2023-10-31T08:50:42;99674.56;;;21.98;38.55
82807;BME280;72563;44.816;20.484;2023-10-31T08:53:07;99661.59;;;22.18;36.65
82807;BME280;72563;44.816;20.484;2023-10-31T08:55:33;99649.84;;;22.37;34.59
82807;BME280;72563;44.816;20.484;2023-10-31T08:57:58;99646.16;;;22.88;35.69
82807;BME280;72563;44.816;20.484;2023-10-31T09:00:24;99634.66;;;22.75;34.93
82807;BME280;72563;44.816;20.484;2023-10-31T09:02:50;99643.84;;;22.79;32.39
82807;BME280;72563;44.816;20.484;2023-10-31T09:05:15;99660.56;;;22.90;35.11
82807;BME280;72563;44.816;20.484;2023-10-31T09:07:41;99668.75;;;22.74;32.64
82807;BME280;72563;44.816;20.484;2023-10-31T09:10:06;99655.44;;;22.81;35.05
82807;BME280;72563;44.816;20.484;2023-10-31T09:12:32;99668.06;;;23.00;34.21
82807;BME280;72563;44.816;20.484;2023-10-31T09:14:57;99660.03;;;23.02;33.46
82807;BME280;72563;44.816;20.484;2023-10-31T09:17:23;99659.47;;;23.48;33.58
82807;BME280;72563;44.816;20.484;2023-10-31T09:19:48;99656.41;;;23.39;31.88
82807;BME280;72563;44.816;20.484;2023-10-31T09:22:14;99630.53;;;23.51;33.03
82807;BME280;72563;44.816;20.484;2023-10-31T09:24:39;99627.88;;;23.40;31.82
82807;BME280;72563;44.816;20.484;2023-10-31T09:27:05;99636.16;;;23.51;32.81
82807;BME280;72563;44.816;20.484;2023-10-31T09:29:31;99638.50;;;23.82;33.44
82807;BME280;72563;44.816;20.484;2023-10-31T09:31:56;99624.78;;;23.88;32.33
82807;BME280;72563;44.816;20.484;2023-10-31T09:34:22;99616.09;;;24.06;32.29
82807;BME280;72563;44.816;20.484;2023-10-31T09:36:47;99620.19;;;23.98;32.50
82807;BME280;72563;44.816;20.484;2023-10-31T09:39:13;99621.16;;;24.14;32.55
82807;BME280;72563;44.816;20.484;2023-10-31T09:41:38;99623.25;;;23.83;32.77
82807;BME280;72563;44.816;20.484;2023-10-31T09:44:04;99617.59;;;23.57;30.97
82807;BME280;72563;44.816;20.484;2023-10-31T09:46:30;99623.69;;;23.52;32.69
82807;BME280;72563;44.816;20.484;2023-10-31T09:48:56;99615.75;;;23.47;33.33
82807;BME280;72563;44.816;20.484;2023-10-31T09:51:22;99621.31;;;23.50;32.59
82807;BME280;72563;44.816;20.484;2023-10-31T09:53:48;99616.13;;;23.49;32.76
82807;BME280;72563;44.816;20.484;2023-10-31T09:56:15;99607.63;;;23.52;31.51
82807;BME280;72563;44.816;20.484;2023-10-31T09:58:41;99590.25;;;23.31;32.27
82807;BME280;72563;44.816;20.484;2023-10-31T10:01:07;99586.84;;;23.16;32.63
82807;BME280;72563;44.816;20.484;2023-10-31T10:03:33;99582.94;;;22.76;33.21
82807;BME280;72563;44.816;20.484;2023-10-31T10:05:59;99596.56;;;22.78;34.20
82807;BME280;72563;44.816;20.484;2023-10-31T10:08:25;99597.19;;;22.92;33.28
82807;BME280;72563;44.816;20.484;2023-10-31T10:10:51;99581.00;;;23.03;32.73
82807;BME280;72563;44.816;20.484;2023-10-31T10:13:18;99579.34;;;23.06;32.34
82807;BME280;72563;44.816;20.484;2023-10-31T10:15:45;99579.91;;;22.57;33.48
82807;BME280;72563;44.816;20.484;2023-10-31T10:18:10;99565.75;;;22.71;32.82
82807;BME280;72563;44.816;20.484;2023-10-31T10:20:36;99548.63;;;22.62;33.01
82807;BME280;72563;44.816;20.484;2023-10-31T10:23:04;99535.91;;;22.50;33.16
82807;BME280;72563;44.816;20.484;2023-10-31T10:25:30;99541.38;;;22.98;33.23
82807;BME280;72563;44.816;20.484;2023-10-31T10:27:55;99525.94;;;22.46;33.71
82807;BME280;72563;44.816;20.484;2023-10-31T10:30:21;99519.06;;;22.50;33.99
82807;BME280;72563;44.816;20.484;2023-10-31T10:32:49;99502.75;;;22.75;33.56
82807;BME280;72563;44.816;20.484;2023-10-31T10:35:16;99512.31;;;22.48;33.64
82807;BME280;72563;44.816;20.484;2023-10-31T10:37:43;99504.22;;;22.53;33.59
82807;BME280;72563;44.816;20.484;2023-10-31T10:40:10;99516.91;;;22.65;33.45
82807;BME280;72563;44.816;20.484;2023-10-31T10:42:44;99491.63;;;22.68;34.36
82807;BME280;72563;44.816;20.484;2023-10-31T10:45:12;99504.41;;;22.73;33.66
82807;BME280;72563;44.816;20.484;2023-10-31T10:47:39;99515.38;;;22.57;34.76
82807;BME280;72563;44.816;20.484;2023-10-31T10:50:05;99504.06;;;22.67;33.72
82807;BME280;72563;44.816;20.484;2023-10-31T10:53:07;99504.75;;;22.78;34.36
82807;BME280;72563;44.816;20.484;2023-10-31T10:55:39;99492.34;;;22.76;34.27
82807;BME280;72563;44.816;20.484;2023-10-31T10:58:26;99484.53;;;22.90;34.64
82807;BME280;72563;44.816;20.484;2023-10-31T11:00:53;99497.72;;;22.63;33.84
82807;BME280;72563;44.816;20.484;2023-10-31T11:03:21;99460.13;;;22.54;34.27
82807;BME280;72563;44.816;20.484;2023-10-31T11:05:47;99487.66;;;22.96;33.89
82807;BME280;72563;44.816;20.484;2023-10-31T11:08:13;99479.31;;;22.89;34.25
82807;BME280;72563;44.816;20.484;2023-10-31T11:10:39;99475.44;;;22.79;33.72
82807;BME280;72563;44.816;20.484;2023-10-31T11:13:05;99472.28;;;22.77;33.88
82807;BME280;72563;44.816;20.484;2023-10-31T11:15:31;99470.47;;;22.64;35.05
82807;BME280;72563;44.816;20.484;2023-10-31T11:17:57;99449.09;;;22.40;34.15
82807;BME280;72563;44.816;20.484;2023-10-31T11:20:23;99449.75;;;22.51;35.47
82807;BME280;72563;44.816;20.484;2023-10-31T11:22:54;99442.50;;;22.53;34.31
82807;BME280;72563;44.816;20.484;2023-10-31T11:25:23;99452.94;;;22.83;34.42
82807;BME280;72563;44.816;20.484;2023-10-31T11:27:52;99448.16;;;23.10;33.60
82807;BME280;72563;44.816;20.484;2023-10-31T11:32:54;99447.94;;;22.97;34.80
82807;BME280;72563;44.816;20.484;2023-10-31T11:35:21;99457.69;;;23.16;33.95
82807;BME280;72563;44.816;20.484;2023-10-31T11:37:48;99425.19;;;23.15;33.61
82807;BME280;72563;44.816;20.484;2023-10-31T11:40:20;99440.31;;;23.25;34.53
82807;BME280;72563;44.816;20.484;2023-10-31T11:42:50;99428.56;;;23.33;33.39
82807;BME280;72563;44.816;20.484;2023-10-31T11:45:41;99438.78;;;23.70;33.20
82807;BME280;72563;44.816;20.484;2023-10-31T11:48:08;99420.41;;;23.85;32.59
82807;BME280;72563;44.816;20.484;2023-10-31T11:50:35;99410.31;;;24.30;31.84
82807;BME280;72563;44.816;20.484;2023-10-31T11:53:08;99404.47;;;24.21;31.34
82807;BME280;72563;44.816;20.484;2023-10-31T11:55:40;99400.31;;;24.65;30.68
82807;BME280;72563;44.816;20.484;2023-10-31T12:00:49;99387.91;;;24.62;30.75
82807;BME280;72563;44.816;20.484;2023-10-31T12:03:20;99365.00;;;24.80;29.95
82807;BME280;72563;44.816;20.484;2023-10-31T12:05:56;99359.13;;;24.91;30.63
82807;BME280;72563;44.816;20.484;2023-10-31T12:11:06;99353.34;;;24.82;30.53
82807;BME280;72563;44.816;20.484;2023-10-31T12:13:33;99356.28;;;24.39;30.90
82807;BME280;72563;44.816;20.484;2023-10-31T12:15:59;99352.16;;;24.43;31.36
82807;BME280;72563;44.816;20.484;2023-10-31T12:18:27;99352.91;;;24.28;32.05
82807;BME280;72563;44.816;20.484;2023-10-31T12:20:52;99346.41;;;24.31;31.70
82807;BME280;72563;44.816;20.484;2023-10-31T12:23:18;99372.59;;;24.28;32.62
82807;BME280;72563;44.816;20.484;2023-10-31T12:25:51;99375.69;;;24.33;31.04
82807;BME280;72563;44.816;20.484;2023-10-31T12:28:23;99366.34;;;24.20;31.10
82807;BME280;72563;44.816;20.484;2023-10-31T12:30:50;99366.53;;;24.29;31.51
82807;BME280;72563;44.816;20.484;2023-10-31T12:33:17;99359.09;;;24.39;31.79
82807;BME280;72563;44.816;20.484;2023-10-31T12:35:43;99351.78;;;24.41;30.63
82807;BME280;72563;44.816;20.484;2023-10-31T12:38:12;99336.97;;;24.41;30.59
82807;BME280;72563;44.816;20.484;2023-10-31T12:40:40;99331.06;;;24.16;30.92
82807;BME280;72563;44.816;20.484;2023-10-31T12:43:07;99319.72;;;24.19;31.96
82807;BME280;72563;44.816;20.484;2023-10-31T12:45:33;99295.38;;;23.73;31.19
82807;BME280;72563;44.816;20.484;2023-10-31T12:48:10;99314.09;;;24.00;31.36
82807;BME280;72563;44.816;20.484;2023-10-31T12:50:38;99313.09;;;23.90;31.28
82807;BME280;72563;44.816;20.484;2023-10-31T12:53:08;99298.25;;;23.70;31.20